Time;durP1;ratioP1;P1;durP2;ratioP2;P2;SDS_P1;SDS_P2;PMS_P1;PMS_P2;Temp;Humidity;BMP_temperature;BMP_pressure;BME280_temperature;BME280_humidity;BME280_pressure;Samples;Min_cycle;Max_cycle;Signal;HPM_P1;HPM_P2
2022/12/15 18:23:56;;;;;;;;;;;;;;;-2.76;100.00;94999.72;5016351;28;19924;-87
2022/12/15 18:30:17;;;;;;;;;;;;;;;-2.70;100.00;95005.25;5043389;28;19924;-89
2022/12/15 18:32:45;;;;;;;;;;;;;;;-2.72;100.00;94996.81;5064825;28;19913;-88
2022/12/15 18:35:32;;;;;;;;;;;;;;;-2.72;100.00;94996.81;5032318;28;19965;-89
2022/12/15 18:38:01;;;;;;;;;;;;;;;-2.79;100.00;94985.31;5027231;28;20023;-89
2022/12/15 18:40:59;;;;;;;;;;;;;;;-2.81;100.00;94997.47;5025436;28;19996;-91
2022/12/15 18:58:27;;;;;;;;;;;;;;;-2.96;100.00;94972.81;4803714;28;20045;-86
2022/12/15 19:01:50;;;;;;;;;;;;;;;-2.95;100.00;94971.88;4871498;28;19959;-86
2022/12/15 19:04:18;;;;;;;;;;;;;;;-2.96;100.00;94972.81;4919934;28;19916;-86
2022/12/15 19:06:43;;;;;;;;;;;;;;;-2.99;100.00;94981.56;4935990;28;19959;-86
2022/12/15 19:09:42;;;;;;;;;;;;;;;-2.97;100.00;94984.88;5015794;28;19964;-86
2022/12/15 19:12:17;;;;;;;;;;;;;;;-2.99;100.00;94970.47;4996282;28;19955;-86
2022/12/15 19:25:04;;;;;;;;;;;;;;;-2.97;100.00;94953.19;4973213;28;19939;-86
2022/12/15 19:27:35;;;;;;;;;;;;;;;-2.96;100.00;94947.09;4978851;28;19921;-86
2022/12/15 19:30:05;;;;;;;;;;;;;;;-2.99;100.00;94931.88;4990058;28;19936;-86
2022/12/15 19:32:30;;;;;;;;;;;;;;;-3.09;100.00;94929.97;4983183;28;19919;-86
2022/12/15 19:34:56;;;;;;;;;;;;;;;-3.10;100.00;94933.47;4980653;28;19912;-85
2022/12/15 19:37:23;;;;;;;;;;;;;;;-3.06;100.00;94930.69;4980893;28;19956;-86
2022/12/15 19:39:49;;;;;;;;;;;;;;;-3.04;100.00;94926.28;4919961;28;20324;-85
2022/12/15 19:42:19;;;;;;;;;;;;;;;-3.02;100.00;94921.81;4960646;28;19916;-85
2022/12/15 19:44:45;;;;;;;;;;;;;;;-3.06;100.00;94923.78;4980276;28;19960;-86
2022/12/15 19:47:14;;;;;;;;;;;;;;;-3.02;100.00;94932.09;4981270;28;20362;-86
2022/12/15 19:49:40;;;;;;;;;;;;;;;-3.07;100.00;94922.16;5008084;28;19927;-85
2022/12/15 19:52:11;;;;;;;;;;;;;;;-3.02;100.00;94926.97;5013470;28;19919;-86
2022/12/15 19:54:37;;;;;;;;;;;;;;;-3.04;100.00;94924.50;5004921;28;19916;-85
2022/12/15 19:57:03;;;;;;;;;;;;;;;-3.01;100.00;94918.34;5024659;28;19913;-85
2022/12/15 19:59:28;;;;;;;;;;;;;;;-3.04;100.00;94918.56;5031432;28;19923;-86
2022/12/15 20:01:54;;;;;;;;;;;;;;;-3.02;100.00;94926.97;5018582;28;19917;-86
2022/12/15 20:04:19;;;;;;;;;;;;;;;-3.03;100.00;94915.84;5012734;28;19916;-85
2022/12/15 20:06:46;;;;;;;;;;;;;;;-3.07;100.00;94911.88;5024249;28;20168;-86
2022/12/15 20:09:17;;;;;;;;;;;;;;;-3.02;100.00;94902.06;5027069;28;19913;-85
2022/12/15 20:11:43;;;;;;;;;;;;;;;-3.00;100.00;94905.34;5023318;28;19913;-86
2022/12/15 20:14:11;;;;;;;;;;;;;;;-3.09;100.00;94899.09;5013413;28;19928;-85
2022/12/15 20:16:37;;;;;;;;;;;;;;;-3.13;100.00;94905.41;5002899;28;19917;-86
2022/12/15 20:19:03;;;;;;;;;;;;;;;-3.09;100.00;94906.00;5010763;28;19936;-85
2022/12/15 20:21:31;;;;;;;;;;;;;;;-3.13;100.00;94915.69;5000525;28;19962;-86
2022/12/15 20:24:00;;;;;;;;;;;;;;;-3.09;100.00;94911.97;5013107;28;19960;-86
2022/12/15 20:26:27;;;;;;;;;;;;;;;-3.05;100.00;94911.75;5015317;28;19920;-86
2022/12/15 20:28:53;;;;;;;;;;;;;;;-3.08;100.00;94916.19;4998409;28;19917;-86
2022/12/15 20:31:20;;;;;;;;;;;;;;;-2.98;100.00;94902.69;5022898;28;19912;-86
2022/12/15 20:33:46;;;;;;;;;;;;;;;-3.05;100.00;94906.59;5037343;28;19909;-86
2022/12/15 20:36:23;;;;;;;;;;;;;;;-3.00;100.00;94905.34;5023519;28;19909;-86
2022/12/15 20:38:49;;;;;;;;;;;;;;;-2.98;100.00;94903.50;5023577;28;19908;-85
2022/12/15 20:41:22;;;;;;;;;;;;;;;-3.06;100.00;94905.78;5054854;28;19948;-86
2022/12/15 20:43:48;;;;;;;;;;;;;;;-3.08;100.00;94912.81;5024562;28;19920;-86
2022/12/15 20:46:15;;;;;;;;;;;;;;;-3.07;100.00;94919.59;5026746;28;19976;-86
2022/12/15 20:48:42;;;;;;;;;;;;;;;-3.13;100.00;94914.88;5016755;28;19966;-86
2022/12/15 20:51:11;;;;;;;;;;;;;;;-3.17;100.00;94916.03;5012549;28;19924;-86
2022/12/15 20:53:37;;;;;;;;;;;;;;;-3.16;100.00;94913.34;5028140;28;19959;-86
2022/12/15 20:56:03;;;;;;;;;;;;;;;-3.18;100.00;94911.81;5019535;28;19964;-86
2022/12/15 20:58:29;;;;;;;;;;;;;;;-3.24;100.00;94918.22;5021148;28;19919;-85
2022/12/15 21:00:54;;;;;;;;;;;;;;;-3.23;100.00;94919.84;5016453;28;20449;-86
2022/12/15 21:03:23;;;;;;;;;;;;;;;-3.23;100.00;94929.31;5019519;28;19919;-86
2022/12/15 21:05:50;;;;;;;;;;;;;;;-3.22;100.00;94931.78;5018115;28;19952;-85
2022/12/15 21:08:19;;;;;;;;;;;;;;;-3.20;100.00;94939.38;5008675;28;19928;-86
2022/12/15 21:10:45;;;;;;;;;;;;;;;-3.17;100.00;94939.97;5004967;28;19912;-86
2022/12/15 21:13:30;;;;;;;;;;;;;;;-3.19;100.00;94930.72;5010374;28;19943;-85
2022/12/15 21:15:56;;;;;;;;;;;;;;;-3.17;100.00;94923.75;5023940;28;19974;-86
2022/12/15 21:18:22;;;;;;;;;;;;;;;-3.30;100.00;94916.06;5012473;28;19913;-86
2022/12/15 21:20:52;;;;;;;;;;;;;;;-3.25;100.00;94910.59;5030758;28;20395;-86
2022/12/15 21:23:19;;;;;;;;;;;;;;;-3.26;100.00;94901.25;5012823;28;19955;-86
2022/12/15 21:25:46;;;;;;;;;;;;;;;-3.26;100.00;94903.81;5012556;28;20005;-86
2022/12/15 21:28:11;;;;;;;;;;;;;;;-3.23;100.00;94904.41;5015567;28;19923;-86
2022/12/15 21:30:37;;;;;;;;;;;;;;;-3.22;100.00;94897.50;5002861;28;19921;-86
2022/12/15 21:33:04;;;;;;;;;;;;;;;-3.26;100.00;94896.91;5021588;28;19913;-86
2022/12/15 21:35:29;;;;;;;;;;;;;;;-3.26;100.00;94894.34;5002626;28;19960;-86
2022/12/15 21:37:55;;;;;;;;;;;;;;;-3.30;100.00;94890.34;5016555;28;19952;-86
2022/12/15 21:40:22;;;;;;;;;;;;;;;-3.27;100.00;94897.84;5025846;28;19920;-86
2022/12/15 21:42:49;;;;;;;;;;;;;;;-3.26;100.00;94902.06;5026194;28;19948;-86
2022/12/15 21:45:16;;;;;;;;;;;;;;;-3.19;100.00;94895.53;5017743;28;20066;-86
2022/12/15 21:50:25;;;;;;;;;;;;;;;-3.32;100.00;94897.34;5027858;28;20466;-85
2022/12/15 21:52:51;;;;;;;;;;;;;;;-3.28;100.00;94898.78;4999998;28;19917;-85
2022/12/15 21:55:18;;;;;;;;;;;;;;;-3.28;100.00;94895.41;5015707;28;19924;-86
2022/12/15 21:57:44;;;;;;;;;;;;;;;-3.28;100.00;94909.06;5005624;28;19927;-86
2022/12/15 22:00:10;;;;;;;;;;;;;;;-3.28;100.00;94905.69;5011965;28;19933;-86
2022/12/15 22:02:37;;;;;;;;;;;;;;;-3.27;100.00;94903.00;5017348;28;19964;-86
2022/12/15 22:05:02;;;;;;;;;;;;;;;-3.32;100.00;94898.19;5012271;28;19960;-86
2022/12/15 22:07:31;;;;;;;;;;;;;;;-3.25;100.00;94893.44;5012899;28;19923;-85
2022/12/15 22:09:56;;;;;;;;;;;;;;;-3.26;100.00;94898.66;5016054;28;19916;-86
2022/12/15 22:12:23;;;;;;;;;;;;;;;-3.27;100.00;94892.72;5017658;28;19912;-86
2022/12/15 22:14:48;;;;;;;;;;;;;;;-3.29;100.00;94899.69;5019964;28;19917;-86
2022/12/15 22:17:18;;;;;;;;;;;;;;;-3.27;100.00;94903.00;5018041;28;19935;-85
2022/12/15 22:19:44;;;;;;;;;;;;;;;-3.32;100.00;94905.06;5010285;28;19936;-86
2022/12/15 22:22:10;;;;;;;;;;;;;;;-3.33;100.00;94906.00;5023615;28;20434;-86
2022/12/15 22:24:36;;;;;;;;;;;;;;;-3.35;100.00;94902.72;5029441;28;19970;-86
2022/12/15 22:27:01;;;;;;;;;;;;;;;-3.37;100.00;94897.69;5029405;28;19916;-86
2022/12/15 22:29:28;;;;;;;;;;;;;;;-3.33;100.00;94903.41;5014087;28;19923;-85
2022/12/15 22:31:54;;;;;;;;;;;;;;;-3.29;100.00;94902.28;5014278;28;19968;-86
2022/12/15 22:34:20;;;;;;;;;;;;;;;-3.26;100.00;94894.34;5017218;28;20015;-85
2022/12/15 22:36:46;;;;;;;;;;;;;;;-3.24;100.00;94899.41;5008680;28;19913;-86
2022/12/15 22:39:13;;;;;;;;;;;;;;;-3.26;100.00;94903.81;5015597;28;19921;-86
2022/12/15 22:41:44;;;;;;;;;;;;;;;-3.35;100.00;94902.72;5011346;28;19916;-86
2022/12/15 22:44:16;;;;;;;;;;;;;;;-3.30;100.00;94903.22;5009649;28;19955;-86
2022/12/15 22:46:42;;;;;;;;;;;;;;;-3.32;100.00;94903.31;5006359;28;20015;-86
2022/12/15 22:49:15;;;;;;;;;;;;;;;-3.31;100.00;94904.16;5017330;28;20003;-85
2022/12/15 22:51:40;;;;;;;;;;;;;;;-3.30;100.00;94902.38;5019806;28;19939;-86
2022/12/15 22:54:16;;;;;;;;;;;;;;;-3.27;100.00;94900.41;5016950;28;19912;-86
2022/12/15 22:56:42;;;;;;;;;;;;;;;-3.25;100.00;94905.44;5021587;28;19917;-85
2022/12/15 22:59:10;;;;;;;;;;;;;;;-3.19;100.00;94907.59;5014150;28;19923;-85
2022/12/15 23:01:36;;;;;;;;;;;;;;;-3.27;100.00;94907.31;5013802;28;19940;-86
2022/12/15 23:04:02;;;;;;;;;;;;;;;-3.29;100.00;94912.56;5031942;28;20011;-86
2022/12/15 23:06:28;;;;;;;;;;;;;;;-3.30;100.00;94917.81;5013152;28;19917;-84
2022/12/15 23:08:53;;;;;;;;;;;;;;;-3.24;100.00;94907.09;5016744;28;19932;-85
2022/12/15 23:11:38;;;;;;;;;;;;;;;-3.19;100.00;94910.97;5019718;28;19969;-85
2022/12/15 23:14:11;;;;;;;;;;;;;;;-3.12;100.00;94922.50;5015464;28;20007;-84
2022/12/15 23:16:36;;;;;;;;;;;;;;;-3.19;100.00;94913.53;5017768;28;20011;-85
2022/12/15 23:19:02;;;;;;;;;;;;;;;-3.21;100.00;94918.00;5012951;28;19974;-85
2022/12/15 23:21:28;;;;;;;;;;;;;;;-3.18;100.00;94922.91;5007612;28;19943;-85
2022/12/15 23:23:54;;;;;;;;;;;;;;;-3.21;100.00;94928.28;5010532;28;19963;-85
2022/12/15 23:26:24;;;;;;;;;;;;;;;-3.18;100.00;94928.06;5009048;28;19920;-85
2022/12/15 23:28:51;;;;;;;;;;;;;;;-3.17;100.00;94934.84;5008441;28;19921;-85
2022/12/15 23:31:16;;;;;;;;;;;;;;;-3.22;100.00;94936.94;5031629;28;20220;-85
2022/12/15 23:33:42;;;;;;;;;;;;;;;-3.23;100.00;94931.88;5011784;28;19917;-85
2022/12/15 23:36:08;;;;;;;;;;;;;;;-3.26;100.00;94930.34;5009912;28;19913;-85
2022/12/15 23:38:34;;;;;;;;;;;;;;;-3.34;100.00;94937.78;5018156;28;19963;-85
2022/12/15 23:41:00;;;;;;;;;;;;;;;-3.29;100.00;94929.72;5017743;28;19963;-85
2022/12/15 23:43:27;;;;;;;;;;;;;;;-3.38;100.00;94926.06;5018132;28;20095;-85
2022/12/15 23:46:00;;;;;;;;;;;;;;;-3.37;100.00;94918.25;5014255;28;20379;-85
2022/12/15 23:48:30;;;;;;;;;;;;;;;-3.40;100.00;94913.31;5007460;28;19982;-85
2022/12/15 23:51:01;;;;;;;;;;;;;;;-3.38;100.00;94916.59;5016505;28;20011;-85
2022/12/15 23:53:26;;;;;;;;;;;;;;;-3.45;100.00;94917.97;5013584;28;19946;-86
2022/12/15 23:55:52;;;;;;;;;;;;;;;-3.42;100.00;94916.91;5006500;28;19913;-85
2022/12/15 23:58:18;;;;;;;;;;;;;;;-3.40;100.00;94920.19;5015795;28;19920;-85
